sensor_id;sensor_type;location;lat;lon;timestamp;P1;durP1;ratioP1;P2;durP2;ratioP2
28078;SDS011;15388;42.238;24.684;2023-05-08T00:02:29;7.65;;;4.55;;
28078;SDS011;15388;42.238;24.684;2023-05-08T00:04:55;7.43;;;5.05;;
28078;SDS011;15388;42.238;24.684;2023-05-08T00:07:21;14.35;;;4.57;;
28078;SDS011;15388;42.238;24.684;2023-05-08T00:09:46;8.63;;;5.72;;
28078;SDS011;15388;42.238;24.684;2023-05-08T00:12:12;11.63;;;5.45;;
28078;SDS011;15388;42.238;24.684;2023-05-08T00:14:37;6.05;;;4.40;;
28078;SDS011;15388;42.238;24.684;2023-05-08T00:17:03;8.52;;;5.00;;
28078;SDS011;15388;42.238;24.684;2023-05-08T00:19:28;8.68;;;5.38;;
28078;SDS011;15388;42.238;24.684;2023-05-08T00:21:54;9.02;;;6.25;;
28078;SDS011;15388;42.238;24.684;2023-05-08T00:24:19;6.30;;;4.47;;
28078;SDS011;15388;42.238;24.684;2023-05-08T00:26:44;6.20;;;5.03;;
28078;SDS011;15388;42.238;24.684;2023-05-08T00:29:10;14.57;;;4.85;;
28078;SDS011;15388;42.238;24.684;2023-05-08T00:31:36;6.20;;;4.28;;
28078;SDS011;15388;42.238;24.684;2023-05-08T00:34:01;12.32;;;4.75;;
28078;SDS011;15388;42.238;24.684;2023-05-08T00:36:26;9.38;;;4.95;;
28078;SDS011;15388;42.238;24.684;2023-05-08T00:38:52;6.05;;;4.45;;
28078;SDS011;15388;42.238;24.684;2023-05-08T00:41:17;10.60;;;5.50;;
28078;SDS011;15388;42.238;24.684;2023-05-08T00:43:44;10.27;;;6.00;;
28078;SDS011;15388;42.238;24.684;2023-05-08T00:46:09;18.90;;;6.80;;
28078;SDS011;15388;42.238;24.684;2023-05-08T00:48:35;11.32;;;6.53;;
28078;SDS011;15388;42.238;24.684;2023-05-08T00:51:03;12.00;;;6.55;;
28078;SDS011;15388;42.238;24.684;2023-05-08T00:53:32;11.43;;;7.57;;
28078;SDS011;15388;42.238;24.684;2023-05-08T00:56:00;12.60;;;6.72;;
28078;SDS011;15388;42.238;24.684;2023-05-08T00:58:26;12.75;;;5.38;;
28078;SDS011;15388;42.238;24.684;2023-05-08T01:00:52;24.83;;;6.43;;
28078;SDS011;15388;42.238;24.684;2023-05-08T01:03:20;16.20;;;5.82;;
28078;SDS011;15388;42.238;24.684;2023-05-08T01:05:48;7.57;;;4.97;;
28078;SDS011;15388;42.238;24.684;2023-05-08T01:08:14;10.77;;;4.82;;
28078;SDS011;15388;42.238;24.684;2023-05-08T01:11:22;10.02;;;4.88;;
28078;SDS011;15388;42.238;24.684;2023-05-08T01:13:49;7.07;;;4.88;;
28078;SDS011;15388;42.238;24.684;2023-05-08T01:22:13;9.38;;;4.38;;
28078;SDS011;15388;42.238;24.684;2023-05-08T01:30:31;10.65;;;3.92;;
28078;SDS011;15388;42.238;24.684;2023-05-08T01:33:07;6.63;;;4.05;;
28078;SDS011;15388;42.238;24.684;2023-05-08T01:35:45;10.13;;;4.00;;
28078;SDS011;15388;42.238;24.684;2023-05-08T01:41:07;4.25;;;3.78;;
28078;SDS011;15388;42.238;24.684;2023-05-08T01:44:37;8.00;;;4.18;;
28078;SDS011;15388;42.238;24.684;2023-05-08T01:46:39;5.85;;;4.60;;
28078;SDS011;15388;42.238;24.684;2023-05-08T01:49:09;11.35;;;4.57;;
28078;SDS011;15388;42.238;24.684;2023-05-08T01:51:45;8.70;;;4.35;;
28078;SDS011;15388;42.238;24.684;2023-05-08T01:54:18;10.90;;;5.00;;
28078;SDS011;15388;42.238;24.684;2023-05-08T01:56:47;9.10;;;5.18;;
28078;SDS011;15388;42.238;24.684;2023-05-08T02:01:42;10.40;;;4.47;;
28078;SDS011;15388;42.238;24.684;2023-05-08T02:04:10;6.60;;;4.40;;
28078;SDS011;15388;42.238;24.684;2023-05-08T02:06:39;10.65;;;5.50;;
28078;SDS011;15388;42.238;24.684;2023-05-08T02:09:06;11.15;;;5.13;;
28078;SDS011;15388;42.238;24.684;2023-05-08T02:11:33;7.57;;;4.88;;
28078;SDS011;15388;42.238;24.684;2023-05-08T02:14:00;8.30;;;4.82;;
28078;SDS011;15388;42.238;24.684;2023-05-08T02:16:27;8.48;;;4.72;;
28078;SDS011;15388;42.238;24.684;2023-05-08T02:18:55;7.35;;;5.13;;
28078;SDS011;15388;42.238;24.684;2023-05-08T02:21:22;8.02;;;4.47;;
28078;SDS011;15388;42.238;24.684;2023-05-08T02:23:49;7.55;;;5.88;;
28078;SDS011;15388;42.238;24.684;2023-05-08T02:28:43;12.27;;;6.10;;
28078;SDS011;15388;42.238;24.684;2023-05-08T02:31:11;6.28;;;5.43;;
28078;SDS011;15388;42.238;24.684;2023-05-08T02:33:38;13.43;;;5.85;;
28078;SDS011;15388;42.238;24.684;2023-05-08T02:36:06;9.77;;;6.05;;
28078;SDS011;15388;42.238;24.684;2023-05-08T02:38:32;9.15;;;5.65;;
28078;SDS011;15388;42.238;24.684;2023-05-08T02:40:59;12.40;;;5.90;;
28078;SDS011;15388;42.238;24.684;2023-05-08T02:43:29;7.95;;;6.65;;
28078;SDS011;15388;42.238;24.684;2023-05-08T02:46:01;6.15;;;5.55;;
28078;SDS011;15388;42.238;24.684;2023-05-08T02:48:34;6.90;;;5.32;;
28078;SDS011;15388;42.238;24.684;2023-05-08T02:56:59;7.22;;;5.93;;
28078;SDS011;15388;42.238;24.684;2023-05-08T02:59:34;8.18;;;5.85;;
28078;SDS011;15388;42.238;24.684;2023-05-08T03:02:11;26.38;;;7.10;;
28078;SDS011;15388;42.238;24.684;2023-05-08T03:07:53;12.68;;;5.82;;
28078;SDS011;15388;42.238;24.684;2023-05-08T03:10:24;9.63;;;6.43;;
28078;SDS011;15388;42.238;24.684;2023-05-08T03:12:53;12.18;;;6.50;;
28078;SDS011;15388;42.238;24.684;2023-05-08T03:15:28;12.18;;;5.95;;
28078;SDS011;15388;42.238;24.684;2023-05-08T03:18:01;13.73;;;5.70;;
28078;SDS011;15388;42.238;24.684;2023-05-08T03:20:34;10.90;;;5.75;;
28078;SDS011;15388;42.238;24.684;2023-05-08T03:23:03;10.05;;;5.90;;
28078;SDS011;15388;42.238;24.684;2023-05-08T03:25:29;10.00;;;6.90;;
28078;SDS011;15388;42.238;24.684;2023-05-08T03:27:56;33.53;;;9.00;;
28078;SDS011;15388;42.238;24.684;2023-05-08T03:30:23;39.75;;;8.85;;
28078;SDS011;15388;42.238;24.684;2023-05-08T03:32:50;20.65;;;7.50;;
28078;SDS011;15388;42.238;24.684;2023-05-08T03:35:17;17.17;;;6.55;;
28078;SDS011;15388;42.238;24.684;2023-05-08T03:37:44;8.50;;;5.45;;
28078;SDS011;15388;42.238;24.684;2023-05-08T03:40:11;21.25;;;6.43;;
28078;SDS011;15388;42.238;24.684;2023-05-08T03:42:37;15.57;;;7.30;;
28078;SDS011;15388;42.238;24.684;2023-05-08T03:45:04;12.15;;;7.43;;
28078;SDS011;15388;42.238;24.684;2023-05-08T03:47:32;54.03;;;8.82;;
28078;SDS011;15388;42.238;24.684;2023-05-08T03:50:00;35.78;;;8.40;;
28078;SDS011;15388;42.238;24.684;2023-05-08T03:52:26;25.60;;;7.72;;
28078;SDS011;15388;42.238;24.684;2023-05-08T03:54:52;11.98;;;6.35;;
28078;SDS011;15388;42.238;24.684;2023-05-08T03:57:17;8.43;;;5.63;;
28078;SDS011;15388;42.238;24.684;2023-05-08T04:02:23;12.52;;;6.95;;
28078;SDS011;15388;42.238;24.684;2023-05-08T04:05:20;25.77;;;9.20;;
28078;SDS011;15388;42.238;24.684;2023-05-08T04:07:51;20.65;;;7.55;;
28078;SDS011;15388;42.238;24.684;2023-05-08T04:10:23;15.45;;;6.90;;
28078;SDS011;15388;42.238;24.684;2023-05-08T04:15:30;9.65;;;6.55;;
28078;SDS011;15388;42.238;24.684;2023-05-08T04:20:32;9.05;;;5.82;;
28078;SDS011;15388;42.238;24.684;2023-05-08T04:22:58;10.05;;;6.32;;
28078;SDS011;15388;42.238;24.684;2023-05-08T04:25:25;8.13;;;5.97;;
28078;SDS011;15388;42.238;24.684;2023-05-08T04:27:52;8.68;;;6.22;;
28078;SDS011;15388;42.238;24.684;2023-05-08T04:30:20;13.10;;;5.78;;
28078;SDS011;15388;42.238;24.684;2023-05-08T04:32:45;10.35;;;6.40;;
28078;SDS011;15388;42.238;24.684;2023-05-08T04:35:13;8.63;;;6.03;;
28078;SDS011;15388;42.238;24.684;2023-05-08T04:37:38;7.60;;;6.32;;
28078;SDS011;15388;42.238;24.684;2023-05-08T04:40:07;12.55;;;7.03;;
28078;SDS011;15388;42.238;24.684;2023-05-08T04:42:34;26.35;;;9.23;;
28078;SDS011;15388;42.238;24.684;2023-05-08T04:45:00;19.23;;;7.27;;
28078;SDS011;15388;42.238;24.684;2023-05-08T04:47:26;7.75;;;6.57;;
28078;SDS011;15388;42.238;24.684;2023-05-08T04:49:53;7.57;;;6.15;;
28078;SDS011;15388;42.238;24.684;2023-05-08T04:52:18;10.00;;;6.80;;
28078;SDS011;15388;42.238;24.684;2023-05-08T04:54:44;11.98;;;6.80;;
28078;SDS011;15388;42.238;24.684;2023-05-08T04:57:09;9.77;;;7.43;;
28078;SDS011;15388;42.238;24.684;2023-05-08T04:59:34;29.70;;;7.95;;
28078;SDS011;15388;42.238;24.684;2023-05-08T05:02:00;13.60;;;6.45;;
28078;SDS011;15388;42.238;24.684;2023-05-08T05:04:26;11.13;;;6.00;;
28078;SDS011;15388;42.238;24.684;2023-05-08T05:06:52;9.27;;;4.95;;
28078;SDS011;15388;42.238;24.684;2023-05-08T05:09:17;11.32;;;4.75;;
28078;SDS011;15388;42.238;24.684;2023-05-08T05:11:43;10.18;;;4.22;;
28078;SDS011;15388;42.238;24.684;2023-05-08T05:14:08;7.30;;;3.97;;
28078;SDS011;15388;42.238;24.684;2023-05-08T05:16:34;6.57;;;4.35;;
28078;SDS011;15388;42.238;24.684;2023-05-08T05:18:59;10.93;;;5.15;;
28078;SDS011;15388;42.238;24.684;2023-05-08T05:21:25;9.18;;;4.45;;
28078;SDS011;15388;42.238;24.684;2023-05-08T05:23:52;7.95;;;4.20;;
28078;SDS011;15388;42.238;24.684;2023-05-08T05:26:17;4.85;;;3.83;;
28078;SDS011;15388;42.238;24.684;2023-05-08T05:28:42;6.70;;;3.72;;
28078;SDS011;15388;42.238;24.684;2023-05-08T05:31:08;7.90;;;4.03;;
28078;SDS011;15388;42.238;24.684;2023-05-08T05:33:34;13.88;;;7.38;;
28078;SDS011;15388;42.238;24.684;2023-05-08T05:36:00;18.45;;;5.70;;
28078;SDS011;15388;42.238;24.684;2023-05-08T05:38:25;7.18;;;4.90;;
28078;SDS011;15388;42.238;24.684;2023-05-08T05:40:51;10.73;;;5.18;;
28078;SDS011;15388;42.238;24.684;2023-05-08T05:43:16;13.32;;;4.03;;
28078;SDS011;15388;42.238;24.684;2023-05-08T05:45:42;16.25;;;4.40;;
28078;SDS011;15388;42.238;24.684;2023-05-08T05:48:07;7.45;;;4.65;;
28078;SDS011;15388;42.238;24.684;2023-05-08T05:50:33;11.18;;;4.00;;
28078;SDS011;15388;42.238;24.684;2023-05-08T05:52:58;8.32;;;4.45;;
28078;SDS011;15388;42.238;24.684;2023-05-08T05:55:23;9.40;;;4.30;;
28078;SDS011;15388;42.238;24.684;2023-05-08T05:57:49;13.30;;;5.05;;
28078;SDS011;15388;42.238;24.684;2023-05-08T06:00:14;6.65;;;4.18;;
28078;SDS011;15388;42.238;24.684;2023-05-08T06:02:41;7.20;;;4.72;;
28078;SDS011;15388;42.238;24.684;2023-05-08T06:05:07;8.43;;;4.90;;
28078;SDS011;15388;42.238;24.684;2023-05-08T06:07:34;6.50;;;3.50;;
28078;SDS011;15388;42.238;24.684;2023-05-08T06:09:59;12.57;;;3.70;;
28078;SDS011;15388;42.238;24.684;2023-05-08T06:12:25;21.48;;;5.10;;
28078;SDS011;15388;42.238;24.684;2023-05-08T06:14:53;12.48;;;3.75;;
28078;SDS011;15388;42.238;24.684;2023-05-08T06:17:19;26.67;;;4.88;;
28078;SDS011;15388;42.238;24.684;2023-05-08T06:19:46;11.90;;;4.95;;
28078;SDS011;15388;42.238;24.684;2023-05-08T06:22:17;29.08;;;5.10;;
28078;SDS011;15388;42.238;24.684;2023-05-08T06:24:43;16.58;;;3.90;;
28078;SDS011;15388;42.238;24.684;2023-05-08T06:27:09;10.52;;;3.63;;
28078;SDS011;15388;42.238;24.684;2023-05-08T06:29:35;14.97;;;3.70;;
28078;SDS011;15388;42.238;24.684;2023-05-08T06:32:01;8.48;;;3.00;;
28078;SDS011;15388;42.238;24.684;2023-05-08T06:34:26;7.97;;;3.10;;
28078;SDS011;15388;42.238;24.684;2023-05-08T06:36:52;20.38;;;5.25;;
28078;SDS011;15388;42.238;24.684;2023-05-08T06:39:17;9.45;;;3.03;;
28078;SDS011;15388;42.238;24.684;2023-05-08T06:41:47;10.18;;;4.70;;
28078;SDS011;15388;42.238;24.684;2023-05-08T06:44:13;9.18;;;2.97;;
28078;SDS011;15388;42.238;24.684;2023-05-08T06:46:38;19.70;;;3.90;;
28078;SDS011;15388;42.238;24.684;2023-05-08T06:49:04;5.95;;;3.17;;
28078;SDS011;15388;42.238;24.684;2023-05-08T06:51:30;10.52;;;3.35;;
28078;SDS011;15388;42.238;24.684;2023-05-08T06:53:55;8.48;;;3.17;;
28078;SDS011;15388;42.238;24.684;2023-05-08T06:56:21;16.05;;;4.55;;
28078;SDS011;15388;42.238;24.684;2023-05-08T06:58:46;6.28;;;3.80;;
28078;SDS011;15388;42.238;24.684;2023-05-08T07:01:12;7.38;;;3.50;;
28078;SDS011;15388;42.238;24.684;2023-05-08T07:03:38;7.43;;;2.80;;
28078;SDS011;15388;42.238;24.684;2023-05-08T07:06:05;9.65;;;3.35;;
28078;SDS011;15388;42.238;24.684;2023-05-08T07:08:34;4.93;;;3.58;;
28078;SDS011;15388;42.238;24.684;2023-05-08T07:11:00;7.45;;;3.22;;
28078;SDS011;15388;42.238;24.684;2023-05-08T07:13:26;5.22;;;3.33;;
28078;SDS011;15388;42.238;24.684;2023-05-08T07:15:52;5.03;;;2.70;;
28078;SDS011;15388;42.238;24.684;2023-05-08T07:18:18;14.50;;;3.90;;
28078;SDS011;15388;42.238;24.684;2023-05-08T07:20:45;5.72;;;3.90;;
28078;SDS011;15388;42.238;24.684;2023-05-08T07:23:10;4.82;;;2.95;;
28078;SDS011;15388;42.238;24.684;2023-05-08T07:25:35;7.45;;;3.72;;
28078;SDS011;15388;42.238;24.684;2023-05-08T07:28:01;8.20;;;3.45;;
28078;SDS011;15388;42.238;24.684;2023-05-08T07:30:26;20.85;;;4.30;;
28078;SDS011;15388;42.238;24.684;2023-05-08T07:32:52;14.15;;;4.28;;
28078;SDS011;15388;42.238;24.684;2023-05-08T07:35:17;8.98;;;3.10;;
28078;SDS011;15388;42.238;24.684;2023-05-08T07:37:43;14.63;;;4.72;;
28078;SDS011;15388;42.238;24.684;2023-05-08T07:40:09;23.25;;;4.70;;
28078;SDS011;15388;42.238;24.684;2023-05-08T07:42:39;11.18;;;4.30;;
28078;SDS011;15388;42.238;24.684;2023-05-08T07:45:08;13.15;;;3.95;;
28078;SDS011;15388;42.238;24.684;2023-05-08T07:47:35;15.43;;;3.63;;
28078;SDS011;15388;42.238;24.684;2023-05-08T07:50:01;12.88;;;3.33;;
28078;SDS011;15388;42.238;24.684;2023-05-08T07:52:27;9.73;;;3.78;;
28078;SDS011;15388;42.238;24.684;2023-05-08T07:54:52;12.52;;;3.45;;
28078;SDS011;15388;42.238;24.684;2023-05-08T07:57:18;6.75;;;3.40;;
28078;SDS011;15388;42.238;24.684;2023-05-08T07:59:43;5.60;;;3.15;;
28078;SDS011;15388;42.238;24.684;2023-05-08T08:02:09;5.93;;;3.42;;
28078;SDS011;15388;42.238;24.684;2023-05-08T08:04:34;6.72;;;2.80;;
28078;SDS011;15388;42.238;24.684;2023-05-08T08:06:59;5.18;;;2.95;;
28078;SDS011;15388;42.238;24.684;2023-05-08T08:09:25;5.70;;;3.03;;
28078;SDS011;15388;42.238;24.684;2023-05-08T08:11:50;8.25;;;3.05;;
28078;SDS011;15388;42.238;24.684;2023-05-08T08:14:16;10.18;;;3.65;;
28078;SDS011;15388;42.238;24.684;2023-05-08T08:16:41;7.20;;;4.13;;
28078;SDS011;15388;42.238;24.684;2023-05-08T08:19:07;9.27;;;3.70;;
28078;SDS011;15388;42.238;24.684;2023-05-08T08:21:33;13.68;;;3.80;;
28078;SDS011;15388;42.238;24.684;2023-05-08T08:23:58;13.02;;;4.85;;
28078;SDS011;15388;42.238;24.684;2023-05-08T08:26:24;12.40;;;4.22;;
28078;SDS011;15388;42.238;24.684;2023-05-08T08:28:50;7.82;;;3.42;;
28078;SDS011;15388;42.238;24.684;2023-05-08T08:31:15;6.38;;;3.67;;
28078;SDS011;15388;42.238;24.684;2023-05-08T08:33:41;7.80;;;3.92;;
28078;SDS011;15388;42.238;24.684;2023-05-08T08:36:13;10.07;;;3.55;;
28078;SDS011;15388;42.238;24.684;2023-05-08T08:38:39;8.10;;;3.60;;
28078;SDS011;15388;42.238;24.684;2023-05-08T08:41:04;6.88;;;3.67;;
28078;SDS011;15388;42.238;24.684;2023-05-08T08:43:30;13.07;;;3.17;;
28078;SDS011;15388;42.238;24.684;2023-05-08T08:45:56;46.58;;;7.82;;
28078;SDS011;15388;42.238;24.684;2023-05-08T08:55:51;7.50;;;4.50;;
28078;SDS011;15388;42.238;24.684;2023-05-08T09:03:24;5.35;;;3.47;;
28078;SDS011;15388;42.238;24.684;2023-05-08T09:05:51;4.67;;;3.27;;
28078;SDS011;15388;42.238;24.684;2023-05-08T09:08:17;6.18;;;4.15;;
28078;SDS011;15388;42.238;24.684;2023-05-08T09:10:43;9.25;;;4.03;;
28078;SDS011;15388;42.238;24.684;2023-05-08T09:13:08;8.43;;;4.20;;
28078;SDS011;15388;42.238;24.684;2023-05-08T09:15:34;6.20;;;3.78;;
28078;SDS011;15388;42.238;24.684;2023-05-08T09:18:00;9.07;;;3.60;;
28078;SDS011;15388;42.238;24.684;2023-05-08T09:20:27;8.68;;;3.97;;
28078;SDS011;15388;42.238;24.684;2023-05-08T09:22:53;5.25;;;4.13;;
28078;SDS011;15388;42.238;24.684;2023-05-08T09:25:19;10.38;;;4.65;;
28078;SDS011;15388;42.238;24.684;2023-05-08T09:27:45;7.35;;;3.83;;
28078;SDS011;15388;42.238;24.684;2023-05-08T09:30:11;12.95;;;6.78;;
28078;SDS011;15388;42.238;24.684;2023-05-08T09:32:39;7.10;;;3.28;;
28078;SDS011;15388;42.238;24.684;2023-05-08T09:35:06;6.25;;;3.58;;
28078;SDS011;15388;42.238;24.684;2023-05-08T09:37:33;6.53;;;3.40;;
28078;SDS011;15388;42.238;24.684;2023-05-08T09:42:39;8.32;;;3.80;;
28078;SDS011;15388;42.238;24.684;2023-05-08T09:45:05;7.45;;;4.13;;
28078;SDS011;15388;42.238;24.684;2023-05-08T09:47:31;4.63;;;3.30;;
28078;SDS011;15388;42.238;24.684;2023-05-08T09:52:25;6.38;;;3.88;;
28078;SDS011;15388;42.238;24.684;2023-05-08T09:57:31;7.97;;;4.10;;
28078;SDS011;15388;42.238;24.684;2023-05-08T10:00:01;9.15;;;3.92;;
28078;SDS011;15388;42.238;24.684;2023-05-08T10:02:34;8.05;;;5.15;;
28078;SDS011;15388;42.238;24.684;2023-05-08T10:05:01;14.98;;;5.05;;
28078;SDS011;15388;42.238;24.684;2023-05-08T10:07:46;12.02;;;3.55;;
28078;SDS011;15388;42.238;24.684;2023-05-08T10:10:12;5.22;;;4.72;;
28078;SDS011;15388;42.238;24.684;2023-05-08T10:12:37;5.10;;;3.53;;
28078;SDS011;15388;42.238;24.684;2023-05-08T10:15:05;7.97;;;4.22;;
28078;SDS011;15388;42.238;24.684;2023-05-08T10:20:09;6.85;;;4.00;;
28078;SDS011;15388;42.238;24.684;2023-05-08T10:22:38;4.13;;;3.42;;
28078;SDS011;15388;42.238;24.684;2023-05-08T10:25:09;4.47;;;3.17;;
28078;SDS011;15388;42.238;24.684;2023-05-08T10:27:46;7.18;;;3.75;;
28078;SDS011;15388;42.238;24.684;2023-05-08T10:30:22;9.07;;;4.00;;
28078;SDS011;15388;42.238;24.684;2023-05-08T10:32:50;7.20;;;3.65;;
28078;SDS011;15388;42.238;24.684;2023-05-08T10:35:19;11.32;;;4.63;;
28078;SDS011;15388;42.238;24.684;2023-05-08T10:37:45;8.38;;;3.78;;
28078;SDS011;15388;42.238;24.684;2023-05-08T10:42:39;12.32;;;4.10;;
28078;SDS011;15388;42.238;24.684;2023-05-08T10:45:06;4.45;;;3.75;;
28078;SDS011;15388;42.238;24.684;2023-05-08T10:50:25;5.80;;;4.18;;
28078;SDS011;15388;42.238;24.684;2023-05-08T10:53:41;5.80;;;4.38;;
28078;SDS011;15388;42.238;24.684;2023-05-08T10:55:53;6.95;;;4.18;;
28078;SDS011;15388;42.238;24.684;2023-05-08T11:03:15;6.00;;;3.70;;
28078;SDS011;15388;42.238;24.684;2023-05-08T11:05:45;7.38;;;4.68;;
28078;SDS011;15388;42.238;24.684;2023-05-08T11:08:18;8.07;;;3.40;;
28078;SDS011;15388;42.238;24.684;2023-05-08T11:10:59;7.43;;;4.75;;
28078;SDS011;15388;42.238;24.684;2023-05-08T11:13:37;5.30;;;3.55;;
28078;SDS011;15388;42.238;24.684;2023-05-08T11:16:05;9.82;;;5.03;;
28078;SDS011;15388;42.238;24.684;2023-05-08T11:18:31;10.98;;;6.65;;
28078;SDS011;15388;42.238;24.684;2023-05-08T11:20:57;7.60;;;4.72;;
28078;SDS011;15388;42.238;24.684;2023-05-08T11:23:30;7.88;;;4.45;;
28078;SDS011;15388;42.238;24.684;2023-05-08T11:26:01;5.97;;;3.58;;
28078;SDS011;15388;42.238;24.684;2023-05-08T11:28:38;8.38;;;3.83;;
28078;SDS011;15388;42.238;24.684;2023-05-08T11:31:07;5.97;;;4.43;;
28078;SDS011;15388;42.238;24.684;2023-05-08T11:33:36;7.43;;;4.47;;
28078;SDS011;15388;42.238;24.684;2023-05-08T11:38:40;8.98;;;4.28;;
28078;SDS011;15388;42.238;24.684;2023-05-08T11:41:19;4.03;;;3.63;;
28078;SDS011;15388;42.238;24.684;2023-05-08T11:49:24;9.48;;;4.15;;
28078;SDS011;15388;42.238;24.684;2023-05-08T11:51:51;5.78;;;4.07;;
28078;SDS011;15388;42.238;24.684;2023-05-08T11:54:22;13.00;;;4.35;;
28078;SDS011;15388;42.238;24.684;2023-05-08T11:56:48;12.50;;;4.23;;
28078;SDS011;15388;42.238;24.684;2023-05-08T11:59:15;8.68;;;3.63;;
28078;SDS011;15388;42.238;24.684;2023-05-08T12:01:41;9.55;;;3.85;;
28078;SDS011;15388;42.238;24.684;2023-05-08T12:04:08;4.10;;;3.60;;
28078;SDS011;15388;42.238;24.684;2023-05-08T12:06:36;53.03;;;6.53;;
28078;SDS011;15388;42.238;24.684;2023-05-08T12:09:04;6.28;;;3.40;;
28078;SDS011;15388;42.238;24.684;2023-05-08T12:11:35;7.45;;;3.30;;
28078;SDS011;15388;42.238;24.684;2023-05-08T12:14:01;5.70;;;3.88;;
28078;SDS011;15388;42.238;24.684;2023-05-08T12:16:26;6.53;;;3.30;;
28078;SDS011;15388;42.238;24.684;2023-05-08T12:18:52;5.75;;;3.22;;
28078;SDS011;15388;42.238;24.684;2023-05-08T12:21:20;21.15;;;4.32;;
28078;SDS011;15388;42.238;24.684;2023-05-08T12:23:46;20.75;;;4.00;;
28078;SDS011;15388;42.238;24.684;2023-05-08T12:26:11;10.50;;;3.42;;
28078;SDS011;15388;42.238;24.684;2023-05-08T12:28:37;44.80;;;5.45;;
28078;SDS011;15388;42.238;24.684;2023-05-08T12:31:04;6.43;;;3.33;;
28078;SDS011;15388;42.238;24.684;2023-05-08T12:33:30;22.15;;;4.80;;
28078;SDS011;15388;42.238;24.684;2023-05-08T12:35:56;6.03;;;3.15;;
28078;SDS011;15388;42.238;24.684;2023-05-08T12:38:25;5.78;;;2.95;;
28078;SDS011;15388;42.238;24.684;2023-05-08T12:40:51;5.00;;;2.72;;
28078;SDS011;15388;42.238;24.684;2023-05-08T12:43:17;10.18;;;3.47;;
28078;SDS011;15388;42.238;24.684;2023-05-08T12:45:42;14.18;;;4.00;;
28078;SDS011;15388;42.238;24.684;2023-05-08T12:48:12;5.88;;;3.20;;
28078;SDS011;15388;42.238;24.684;2023-05-08T12:50:42;3.05;;;2.60;;
28078;SDS011;15388;42.238;24.684;2023-05-08T12:53:09;7.07;;;3.05;;
28078;SDS011;15388;42.238;24.684;2023-05-08T12:55:51;5.90;;;3.45;;
28078;SDS011;15388;42.238;24.684;2023-05-08T12:58:18;10.93;;;4.15;;
28078;SDS011;15388;42.238;24.684;2023-05-08T13:00:48;6.60;;;3.50;;
28078;SDS011;15388;42.238;24.684;2023-05-08T13:05:47;9.20;;;3.15;;
28078;SDS011;15388;42.238;24.684;2023-05-08T13:08:13;7.35;;;3.70;;
28078;SDS011;15388;42.238;24.684;2023-05-08T13:10:42;8.20;;;3.10;;
28078;SDS011;15388;42.238;24.684;2023-05-08T13:13:19;5.20;;;2.78;;
28078;SDS011;15388;42.238;24.684;2023-05-08T13:15:46;5.13;;;2.65;;
28078;SDS011;15388;42.238;24.684;2023-05-08T13:18:13;8.82;;;2.85;;
28078;SDS011;15388;42.238;24.684;2023-05-08T13:20:39;2.35;;;2.13;;
28078;SDS011;15388;42.238;24.684;2023-05-08T13:23:05;4.20;;;3.20;;
28078;SDS011;15388;42.238;24.684;2023-05-08T13:25:32;9.15;;;3.08;;
28078;SDS011;15388;42.238;24.684;2023-05-08T13:27:57;5.03;;;3.53;;
28078;SDS011;15388;42.238;24.684;2023-05-08T13:30:24;3.67;;;3.20;;
28078;SDS011;15388;42.238;24.684;2023-05-08T13:32:50;17.05;;;3.30;;
28078;SDS011;15388;42.238;24.684;2023-05-08T13:35:16;6.50;;;3.50;;
28078;SDS011;15388;42.238;24.684;2023-05-08T13:37:42;7.77;;;3.43;;
28078;SDS011;15388;42.238;24.684;2023-05-08T13:40:08;4.97;;;3.42;;
28078;SDS011;15388;42.238;24.684;2023-05-08T13:42:36;8.80;;;3.47;;
28078;SDS011;15388;42.238;24.684;2023-05-08T13:45:02;12.77;;;2.88;;
28078;SDS011;15388;42.238;24.684;2023-05-08T13:47:28;6.28;;;3.38;;
28078;SDS011;15388;42.238;24.684;2023-05-08T13:49:54;7.50;;;3.58;;
28078;SDS011;15388;42.238;24.684;2023-05-08T13:52:19;10.57;;;3.55;;
28078;SDS011;15388;42.238;24.684;2023-05-08T13:54:45;6.28;;;3.30;;
28078;SDS011;15388;42.238;24.684;2023-05-08T13:57:10;7.35;;;3.10;;
28078;SDS011;15388;42.238;24.684;2023-05-08T13:59:35;4.88;;;2.97;;
28078;SDS011;15388;42.238;24.684;2023-05-08T14:02:03;5.10;;;2.85;;
28078;SDS011;15388;42.238;24.684;2023-05-08T14:04:29;4.25;;;3.05;;
28078;SDS011;15388;42.238;24.684;2023-05-08T14:06:55;13.15;;;4.07;;
28078;SDS011;15388;42.238;24.684;2023-05-08T14:09:20;8.73;;;2.70;;
28078;SDS011;15388;42.238;24.684;2023-05-08T14:11:46;14.90;;;3.78;;
28078;SDS011;15388;42.238;24.684;2023-05-08T14:14:11;3.72;;;3.33;;
28078;SDS011;15388;42.238;24.684;2023-05-08T14:16:36;8.30;;;3.22;;
28078;SDS011;15388;42.238;24.684;2023-05-08T14:19:02;3.95;;;2.53;;
28078;SDS011;15388;42.238;24.684;2023-05-08T14:21:27;7.95;;;2.97;;
28078;SDS011;15388;42.238;24.684;2023-05-08T14:23:53;10.52;;;2.92;;
28078;SDS011;15388;42.238;24.684;2023-05-08T14:26:18;10.70;;;3.90;;
28078;SDS011;15388;42.238;24.684;2023-05-08T14:28:45;6.07;;;2.28;;
28078;SDS011;15388;42.238;24.684;2023-05-08T14:31:10;10.88;;;3.30;;
28078;SDS011;15388;42.238;24.684;2023-05-08T14:33:36;5.30;;;2.60;;
28078;SDS011;15388;42.238;24.684;2023-05-08T14:36:01;10.02;;;2.83;;
28078;SDS011;15388;42.238;24.684;2023-05-08T14:38:27;3.95;;;2.80;;
28078;SDS011;15388;42.238;24.684;2023-05-08T14:40:52;7.35;;;2.58;;
28078;SDS011;15388;42.238;24.684;2023-05-08T14:43:20;3.63;;;2.85;;
28078;SDS011;15388;42.238;24.684;2023-05-08T14:45:46;5.93;;;2.85;;
28078;SDS011;15388;42.238;24.684;2023-05-08T14:48:12;8.82;;;3.85;;
28078;SDS011;15388;42.238;24.684;2023-05-08T14:50:38;8.10;;;3.42;;
28078;SDS011;15388;42.238;24.684;2023-05-08T14:53:03;4.10;;;2.22;;
28078;SDS011;15388;42.238;24.684;2023-05-08T14:55:29;2.92;;;2.28;;
28078;SDS011;15388;42.238;24.684;2023-05-08T14:57:54;3.15;;;2.20;;
28078;SDS011;15388;42.238;24.684;2023-05-08T15:00:20;11.27;;;2.72;;
28078;SDS011;15388;42.238;24.684;2023-05-08T15:02:46;19.70;;;3.17;;
28078;SDS011;15388;42.238;24.684;2023-05-08T15:05:11;4.50;;;1.65;;
28078;SDS011;15388;42.238;24.684;2023-05-08T15:07:37;5.88;;;2.42;;
28078;SDS011;15388;42.238;24.684;2023-05-08T15:10:03;1.60;;;1.50;;
28078;SDS011;15388;42.238;24.684;2023-05-08T15:12:29;4.88;;;1.80;;
28078;SDS011;15388;42.238;24.684;2023-05-08T15:14:54;6.97;;;2.28;;
28078;SDS011;15388;42.238;24.684;2023-05-08T15:17:20;7.75;;;2.08;;
28078;SDS011;15388;42.238;24.684;2023-05-08T15:19:45;5.80;;;1.92;;
28078;SDS011;15388;42.238;24.684;2023-05-08T15:22:11;12.50;;;3.13;;
28078;SDS011;15388;42.238;24.684;2023-05-08T15:24:38;8.70;;;3.15;;
28078;SDS011;15388;42.238;24.684;2023-05-08T15:27:04;2.05;;;1.92;;
28078;SDS011;15388;42.238;24.684;2023-05-08T15:29:30;8.05;;;2.28;;
28078;SDS011;15388;42.238;24.684;2023-05-08T15:31:56;3.25;;;2.22;;
28078;SDS011;15388;42.238;24.684;2023-05-08T15:34:21;5.35;;;2.55;;
28078;SDS011;15388;42.238;24.684;2023-05-08T15:36:47;2.47;;;2.22;;
28078;SDS011;15388;42.238;24.684;2023-05-08T15:39:12;22.58;;;2.83;;
28078;SDS011;15388;42.238;24.684;2023-05-08T15:41:38;6.63;;;2.35;;
28078;SDS011;15388;42.238;24.684;2023-05-08T15:44:05;8.07;;;2.22;;
28078;SDS011;15388;42.238;24.684;2023-05-08T15:46:31;2.20;;;2.00;;
28078;SDS011;15388;42.238;24.684;2023-05-08T15:48:56;5.40;;;2.22;;
28078;SDS011;15388;42.238;24.684;2023-05-08T15:51:22;3.67;;;2.40;;